Vale Grand Sud — FICV — position and weather

sailwx.info

Track history (hours):
 
Tides and Currents Weather Stations Pressure Air Temp Water Temp Dewpoint Dewpoint Depression Visibility Wind Speed Wind Dir Waves Ship Positions

Vale Grand Sud

Last reported at 2017-Sep-25 13:30 UTC. Time now 2017-Sep-25 13:35 UTC.
Position S 22°16' E 166°26'.

Length 41 m; draft 2.5 m.

Type: High speed craft. MMSI: 540011300.

Date/timePositionNaut miles runAvg speedWind from/ knotsBaromVisibWave heightAir tempDewpointWater temp
2017-Sep-25 13:30S 22°16' E 166°26'0 0.0
2017-Sep-25 13:00S 22°16' E 166°26'0 0.0
2017-Sep-25 12:30S 22°16' E 166°26'0 0.0
2017-Sep-25 12:01S 22°16' E 166°26'0 0.0
2017-Sep-25 11:31S 22°16' E 166°26'0 0.0
2017-Sep-25 11:00S 22°16' E 166°26'0 0.0
2017-Sep-25 10:31S 22°16' E 166°26'0 0.0
2017-Sep-25 10:00S 22°16' E 166°26'0 0.0
2017-Sep-25 09:31S 22°16' E 166°26'0 0.0
2017-Sep-25 09:01S 22°16' E 166°26'0 0.0
2017-Sep-25 08:31S 22°16' E 166°26'0 0.0
2017-Sep-25 08:00S 22°16' E 166°26'0 0.0
2017-Sep-25 07:30S 22°16' E 166°26'0 0.0
2017-Sep-25 07:00S 22°16' E 166°26'4 7.4
2017-Sep-25 06:30S 22°20' E 166°27'12 1.1
2017-Sep-24 20:01S 22°23' E 166°39'136.7
2017-Sep-24 20:00S 22°23' E 166°39'1327.0
2017-Sep-24 19:31S 22°16' E 166°26'0 0.5
2017-Sep-24 19:00S 22°16' E 166°26'0 0.0
2017-Sep-24 18:30S 22°16' E 166°26'0 0.0
2017-Sep-24 18:00S 22°16' E 166°26'0 0.0
2017-Sep-24 17:30S 22°16' E 166°26'0 0.0
2017-Sep-24 17:00S 22°16' E 166°26'0 0.0
2017-Sep-24 16:30S 22°16' E 166°26'0 0.0
2017-Sep-24 16:00S 22°16' E 166°26'0 0.0
2017-Sep-24 15:30S 22°16' E 166°26'0 0.0
2017-Sep-24 15:00S 22°16' E 166°26'0 0.0
2017-Sep-24 14:30S 22°16' E 166°26'0 0.0
2017-Sep-24 14:00S 22°16' E 166°26'0 0.0
2017-Sep-24 13:30S 22°16' E 166°26'0 0.0
2017-Sep-24 13:00S 22°16' E 166°26'0 0.0
2017-Sep-24 12:30S 22°16' E 166°26'0 0.0
2017-Sep-24 12:00S 22°16' E 166°26'0 0.0
2017-Sep-24 11:30S 22°16' E 166°26'0 0.0
2017-Sep-24 11:00S 22°16' E 166°26'0 0.0
2017-Sep-24 10:30S 22°16' E 166°26'0 0.0
2017-Sep-24 10:00S 22°16' E 166°26'0 0.0
2017-Sep-24 09:31S 22°16' E 166°26'1121.6
2017-Sep-24 08:59S 22°22' E 166°36'2 1.4
2017-Sep-24 07:42S 22°23' E 166°38'736.4
2017-Sep-24 07:31S 22°21' E 166°31'612.4
2017-Sep-24 07:00S 22°16' E 166°26'0 0.0
2017-Sep-24 06:30S 22°16' E 166°26'0 0.0
2017-Sep-24 06:00S 22°16' E 166°26'0 0.0
2017-Sep-24 05:30S 22°16' E 166°26'0 0.0
2017-Sep-24 05:00S 22°16' E 166°26'0 0.0
2017-Sep-24 04:30S 22°16' E 166°26'0 0.0
2017-Sep-24 04:00S 22°16' E 166°26'0 0.0
2017-Sep-24 03:30S 22°16' E 166°26'0 0.0
2017-Sep-24 03:00S 22°16' E 166°26'0 0.0
2017-Sep-24 02:30S 22°16' E 166°26'0 0.0
2017-Sep-24 02:00S 22°16' E 166°26'0 0.0
2017-Sep-24 01:30S 22°16' E 166°26'0 0.0
2017-Sep-24 01:00S 22°16' E 166°26'0 0.0
2017-Sep-24 00:30S 22°16' E 166°26'0 0.0
2017-Sep-24 00:00S 22°16' E 166°26'0 0.0
2017-Sep-23 23:30S 22°16' E 166°26'0 0.0
2017-Sep-23 23:00S 22°16' E 166°26'1121.5
2017-Sep-23 22:31S 22°22' E 166°36'3 1.4
2017-Sep-23 20:01S 22°23' E 166°39'025.5
2017-Sep-23 20:00S 22°23' E 166°39'2 0.0
2017-Sep-21 19:59S 22°21' E 166°38'1224.6
2017-Sep-21 19:30S 22°16' E 166°26'0 0.5
2017-Sep-21 19:00S 22°16' E 166°26'0 0.0
2017-Sep-21 18:30S 22°16' E 166°26'0 0.0
2017-Sep-21 18:01S 22°16' E 166°26'0 0.0
2017-Sep-21 17:31S 22°16' E 166°26'0 0.0
2017-Sep-21 17:00S 22°16' E 166°26'0 0.0
2017-Sep-21 16:30S 22°16' E 166°26'0 0.0
2017-Sep-21 16:01S 22°16' E 166°26'0 0.0
2017-Sep-21 15:31S 22°16' E 166°26'0 0.0
2017-Sep-21 15:01S 22°16' E 166°26'0 0.0
2017-Sep-21 14:31S 22°16' E 166°26'0 0.0
2017-Sep-21 14:00S 22°16' E 166°26'0 0.0
2017-Sep-21 13:31S 22°16' E 166°26'0 0.0
2017-Sep-21 13:01S 22°16' E 166°26'0 0.0
2017-Sep-21 12:31S 22°16' E 166°26'0 0.0
2017-Sep-21 12:00S 22°16' E 166°26'0 0.0
2017-Sep-21 11:30S 22°16' E 166°26'0 0.0
2017-Sep-21 11:01S 22°16' E 166°26'0 0.0
2017-Sep-21 10:30S 22°16' E 166°26'0 0.0
2017-Sep-21 10:01S 22°16' E 166°26'0 0.0
2017-Sep-21 09:30S 22°16' E 166°26'0 0.0
2017-Sep-21 09:01S 22°16' E 166°26'0 0.0
2017-Sep-21 08:30S 22°16' E 166°26'0 0.0
2017-Sep-21 08:01S 22°16' E 166°26'0 0.0
2017-Sep-21 07:30S 22°16' E 166°26'0 0.0
2017-Sep-21 07:01S 22°16' E 166°26'1 2.8
2017-Sep-21 06:31S 22°17' E 166°25'13 1.3
2017-Sep-20 20:00S 22°23' E 166°38'1326.8
2017-Sep-20 19:31S 22°16' E 166°26'0 0.5
2017-Sep-20 19:00S 22°16' E 166°26'0 0.0
2017-Sep-20 18:30S 22°16' E 166°26'0 0.0
2017-Sep-20 18:00S 22°16' E 166°26'0 0.0
2017-Sep-20 17:30S 22°16' E 166°26'0 0.0
2017-Sep-20 17:00S 22°16' E 166°26'0 0.0
2017-Sep-20 16:31S 22°16' E 166°26'0 0.0
2017-Sep-20 16:01S 22°16' E 166°26'0 0.0
2017-Sep-20 15:31S 22°16' E 166°26'0 0.0
2017-Sep-20 15:00S 22°16' E 166°26'0 0.0
2017-Sep-20 14:01S 22°16' E 166°26'0 0.0
2017-Sep-20 13:31S 22°16' E 166°26'0 0.0
2017-Sep-20 13:01S 22°16' E 166°26'0 0.0
2017-Sep-20 12:30S 22°16' E 166°26'0 0.0
2017-Sep-20 12:00S 22°16' E 166°26'0 0.0
2017-Sep-20 11:30S 22°16' E 166°26'0 0.0
2017-Sep-20 11:00S 22°16' E 166°26'0 0.0
2017-Sep-20 10:31S 22°16' E 166°26'0 0.0
2017-Sep-20 10:00S 22°16' E 166°26'0 0.1
2017-Sep-20 09:31S 22°16' E 166°26'1322.9
2017-Sep-20 08:57S 22°23' E 166°38'1 0.8
2017-Sep-20 07:43S 22°23' E 166°37'837.2
2017-Sep-20 07:31S 22°20' E 166°29'5 9.7
2017-Sep-20 07:01S 22°16' E 166°26'1 2.0
2017-Sep-20 06:31S 22°17' E 166°26'14 2.2
2017-Sep-20 00:05S 22°23' E 166°39'332.5
2017-Sep-20 00:00S 22°23' E 166°37'1223.1
2017-Sep-19 23:30S 22°16' E 166°26'0 0.3
2017-Sep-19 23:00S 22°16' E 166°26'1224.4
2017-Sep-19 22:30S 22°23' E 166°38'2 0.7
2017-Sep-19 20:02S 22°23' E 166°39'136.0
2017-Sep-19 20:00S 22°23' E 166°38'1326.2
2017-Sep-19 19:30S 22°16' E 166°26'0 0.5
2017-Sep-19 19:00S 22°16' E 166°26'0 0.0
2017-Sep-19 18:30S 22°16' E 166°26'0 0.0
2017-Sep-19 18:00S 22°16' E 166°26'0 0.0
2017-Sep-19 17:30S 22°16' E 166°26'0 0.0
2017-Sep-19 17:00S 22°16' E 166°26'0 0.0
2017-Sep-19 16:30S 22°16' E 166°26'0 0.0
2017-Sep-19 16:00S 22°16' E 166°26'0 0.0
2017-Sep-19 15:30S 22°16' E 166°26'0 0.0
2017-Sep-19 15:00S 22°16' E 166°26'0 0.0
2017-Sep-19 14:30S 22°16' E 166°26'0 0.0
2017-Sep-19 14:00S 22°16' E 166°26'0 0.0
2017-Sep-19 13:27S 22°16' E 166°26'0 0.0
2017-Sep-19 12:57S 22°16' E 166°26'0 0.0
2017-Sep-19 12:30S 22°16' E 166°26'0 0.0
2017-Sep-19 12:00S 22°16' E 166°26'0 0.0
2017-Sep-19 11:30S 22°16' E 166°26'0 0.0
2017-Sep-19 11:00S 22°16' E 166°26'3 6.4
2017-Sep-19 10:30S 22°19' E 166°26'12 5.0
2017-Sep-19 08:04S 22°23' E 166°39'232.6
2017-Sep-19 08:00S 22°23' E 166°37'1224.0
2017-Sep-19 07:30S 22°16' E 166°26'0 0.7
2017-Sep-19 06:58S 22°16' E 166°26'1 2.2
2017-Sep-19 06:30S 22°17' E 166°26'13 1.3
2017-Sep-18 20:05S 22°23' E 166°38'328.5
2017-Sep-18 20:00S 22°22' E 166°36'1122.2
2017-Sep-18 19:30S 22°16' E 166°26'0 0.7
2017-Sep-18 18:58S 22°16' E 166°26'0 0.0
2017-Sep-18 18:25S 22°16' E 166°26'0 0.0
2017-Sep-18 17:59S 22°16' E 166°26'0 0.0
2017-Sep-18 17:28S 22°16' E 166°26'0 0.0
2017-Sep-18 16:58S 22°16' E 166°26'0 0.0
2017-Sep-18 16:28S 22°16' E 166°26'0 0.0
2017-Sep-18 15:59S 22°16' E 166°26'0 0.0
2017-Sep-18 15:29S 22°16' E 166°26'0 0.0
2017-Sep-18 14:58S 22°16' E 166°26'0 0.0
2017-Sep-18 14:28S 22°16' E 166°26'0 0.0
2017-Sep-18 13:58S 22°16' E 166°26'0 0.0
2017-Sep-18 13:29S 22°16' E 166°26'0 0.0
2017-Sep-18 12:55S 22°16' E 166°26'0 0.0
2017-Sep-18 12:28S 22°16' E 166°26'0 0.0
2017-Sep-18 11:58S 22°16' E 166°26'0 0.0
2017-Sep-18 11:28S 22°16' E 166°26'0 0.0
2017-Sep-18 10:58S 22°16' E 166°26'0 0.0
2017-Sep-18 10:28S 22°16' E 166°26'0 0.0
2017-Sep-18 09:58S 22°16' E 166°26'0 0.0
2017-Sep-18 09:28S 22°16' E 166°26'0 0.0
2017-Sep-18 08:58S 22°16' E 166°26'0 0.0
2017-Sep-18 08:28S 22°16' E 166°26'0 0.0
2017-Sep-18 07:58S 22°16' E 166°26'0 0.0
2017-Sep-18 07:28S 22°16' E 166°26'0 0.0
2017-Sep-18 06:58S 22°16' E 166°26'4 9.4
2017-Sep-18 06:30S 22°20' E 166°28'11 1.0
2017-Sep-17 20:09S 22°23' E 166°40'429.5
2017-Sep-17 20:01S 22°22' E 166°35'1020.6
2017-Sep-17 19:31S 22°16' E 166°26'0 0.5
2017-Sep-17 19:01S 22°16' E 166°26'0 0.0
2017-Sep-17 18:31S 22°16' E 166°26'0 0.0
2017-Sep-17 18:01S 22°16' E 166°26'0 0.0
2017-Sep-17 17:31S 22°16' E 166°26'0 0.0
2017-Sep-17 17:00S 22°16' E 166°26'0 0.0
2017-Sep-17 16:31S 22°16' E 166°26'0 0.0
2017-Sep-17 16:01S 22°16' E 166°26'0 0.0
2017-Sep-17 15:31S 22°16' E 166°26'0 0.0
2017-Sep-17 15:01S 22°16' E 166°26'0 0.0
2017-Sep-17 14:31S 22°16' E 166°26'0 0.0
2017-Sep-17 14:00S 22°16' E 166°26'0 0.0
2017-Sep-17 13:31S 22°16' E 166°26'0 0.0
2017-Sep-17 13:01S 22°16' E 166°26'0 0.0
2017-Sep-17 12:30S 22°16' E 166°26'0 0.0
2017-Sep-17 12:01S 22°16' E 166°26'0 0.0
2017-Sep-17 11:31S 22°16' E 166°26'0 0.0
2017-Sep-17 11:00S 22°16' E 166°26'0 0.0
2017-Sep-17 10:30S 22°16' E 166°26'0 0.0
2017-Sep-17 10:01S 22°16' E 166°26'0 0.0
2017-Sep-17 09:31S 22°16' E 166°26'0 0.0
2017-Sep-17 09:01S 22°16' E 166°26'0 0.0
2017-Sep-17 08:31S 22°16' E 166°26'0 0.0
2017-Sep-17 08:01S 22°16' E 166°26'0 0.0
2017-Sep-17 07:31S 22°16' E 166°26'0 0.0
2017-Sep-17 07:01S 22°16' E 166°26'0 0.0
2017-Sep-17 06:31S 22°16' E 166°26'0 0.0
2017-Sep-17 06:01S 22°16' E 166°26'0 0.0
2017-Sep-17 05:30S 22°16' E 166°26'0 0.0
2017-Sep-17 05:01S 22°16' E 166°26'0 0.0
2017-Sep-17 04:31S 22°16' E 166°26'0 0.0
2017-Sep-17 04:00S 22°16' E 166°26'0 0.0
2017-Sep-17 03:31S 22°16' E 166°26'0 0.0
2017-Sep-17 03:01S 22°16' E 166°26'0 0.0
2017-Sep-17 02:30S 22°16' E 166°26'0 0.0
2017-Sep-17 02:00S 22°16' E 166°26'0 0.0
2017-Sep-17 01:31S 22°16' E 166°26'0 0.0
2017-Sep-17 01:00S 22°16' E 166°26'0 0.0
2017-Sep-17 00:30S 22°16' E 166°26'0 0.0
2017-Sep-17 00:01S 22°16' E 166°26'1 2.2
2017-Sep-16 23:30S 22°17' E 166°26'1 2.2
2017-Sep-16 22:59S 22°16' E 166°26'0 0.0
2017-Sep-16 22:26S 22°16' E 166°26'0 0.0
2017-Sep-16 21:59S 22°16' E 166°26'0 0.0
2017-Sep-16 21:29S 22°16' E 166°26'0 0.0
2017-Sep-16 20:59S 22°16' E 166°26'0 0.0
2017-Sep-16 20:29S 22°16' E 166°26'0 0.0
2017-Sep-16 19:59S 22°16' E 166°26'0 0.0
2017-Sep-16 19:29S 22°16' E 166°26'0 0.0
2017-Sep-16 18:59S 22°16' E 166°26'0 0.0
2017-Sep-16 18:29S 22°16' E 166°26'0 0.0
2017-Sep-16 17:59S 22°16' E 166°26'0 0.0
2017-Sep-16 17:29S 22°16' E 166°26'0 0.0
2017-Sep-16 16:59S 22°16' E 166°26'0 0.0
2017-Sep-16 16:29S 22°16' E 166°26'0 0.0
2017-Sep-16 15:59S 22°16' E 166°26'0 0.0
2017-Sep-16 15:29S 22°16' E 166°26'0 0.0
2017-Sep-16 14:59S 22°16' E 166°26'0 0.0
2017-Sep-16 14:29S 22°16' E 166°26'0 0.0
2017-Sep-16 13:59S 22°16' E 166°26'0 0.0
2017-Sep-16 13:29S 22°16' E 166°26'0 0.0
2017-Sep-16 12:59S 22°16' E 166°26'0 0.0
2017-Sep-16 12:29S 22°16' E 166°26'0 0.0
2017-Sep-16 11:59S 22°16' E 166°26'0 0.0
2017-Sep-16 11:26S 22°16' E 166°26'0 0.0
2017-Sep-16 10:59S 22°16' E 166°26'0 0.0
2017-Sep-16 10:29S 22°16' E 166°26'0 0.0
2017-Sep-16 09:59S 22°16' E 166°26'2 3.7
2017-Sep-16 09:31S 22°18' E 166°25'1630.6
2017-Sep-16 09:00S 22°23' E 166°41'1 1.3
2017-Sep-16 07:53S 22°23' E 166°40'1230.5
2017-Sep-16 07:30S 22°20' E 166°28'4 7.7
2017-Sep-16 07:00S 22°16' E 166°26'0 0.0
2017-Sep-16 06:30S 22°16' E 166°26'0 0.0
2017-Sep-16 06:00S 22°16' E 166°26'0 0.0
2017-Sep-16 05:30S 22°16' E 166°26'0 0.0
2017-Sep-16 05:00S 22°16' E 166°26'0 0.0
2017-Sep-16 04:30S 22°16' E 166°26'0 0.0
2017-Sep-16 04:00S 22°16' E 166°26'0 0.0
2017-Sep-16 03:30S 22°16' E 166°26'0 0.0
2017-Sep-16 03:00S 22°16' E 166°26'0 0.0
2017-Sep-16 02:30S 22°16' E 166°26'0 0.0
2017-Sep-16 02:00S 22°16' E 166°26'0 0.0
2017-Sep-16 01:30S 22°16' E 166°26'0 0.0
2017-Sep-16 01:00S 22°16' E 166°26'0 0.0
2017-Sep-16 00:30S 22°16' E 166°26'0 0.0
2017-Sep-16 00:00S 22°16' E 166°26'0 0.0
2017-Sep-15 23:30S 22°16' E 166°26'3 5.4
2017-Sep-15 23:01S 22°19' E 166°26'13 4.5
2017-Sep-15 20:06S 22°23' E 166°39'330.0
2017-Sep-15 20:00S 22°23' E 166°36'1122.6
2017-Sep-15 19:30S 22°16' E 166°26'0 0.6
2017-Sep-15 19:00S 22°16' E 166°26'0 0.0
2017-Sep-15 18:29S 22°16' E 166°26'0 0.0
2017-Sep-15 17:59S 22°16' E 166°26'0 0.0
2017-Sep-15 17:26S 22°16' E 166°26'0 0.0
2017-Sep-15 16:59S 22°16' E 166°26'0 0.0
2017-Sep-15 16:29S 22°16' E 166°26'0 0.0
2017-Sep-15 15:59S 22°16' E 166°26'0 0.0
2017-Sep-15 15:29S 22°16' E 166°26'0 0.0
2017-Sep-15 14:59S 22°16' E 166°26'0 0.0
2017-Sep-15 14:29S 22°16' E 166°26'0 0.0
2017-Sep-15 13:59S 22°16' E 166°26'  
Track history (hours):
 
Tides and Currents Weather Stations Pressure Air Temp Water Temp Dewpoint Dewpoint Depression Visibility Wind Speed Wind Dir Waves Ship Positions

Vale Grand Sud

Last reported at 2017-Sep-25 13:30 UTC. Time now 2017-Sep-25 13:35 UTC.
Position S 22°16' E 166°26'.

Length 41 m; draft 2.5 m.

Type: High speed craft. MMSI: 540011300.

Date/timePositionNaut miles runAvg speedWind from/ knotsBaromVisibWave heightAir tempDewpointWater temp
2017-Sep-25 13:30S 22°16' E 166°26'0 0.0
2017-Sep-25 13:00S 22°16' E 166°26'0 0.0
2017-Sep-25 12:30S 22°16' E 166°26'0 0.0
2017-Sep-25 12:01S 22°16' E 166°26'0 0.0
2017-Sep-25 11:31S 22°16' E 166°26'0 0.0
2017-Sep-25 11:00S 22°16' E 166°26'0 0.0
2017-Sep-25 10:31S 22°16' E 166°26'0 0.0
2017-Sep-25 10:00S 22°16' E 166°26'0 0.0
2017-Sep-25 09:31S 22°16' E 166°26'0 0.0
2017-Sep-25 09:01S 22°16' E 166°26'0 0.0
2017-Sep-25 08:31S 22°16' E 166°26'0 0.0
2017-Sep-25 08:00S 22°16' E 166°26'0 0.0
2017-Sep-25 07:30S 22°16' E 166°26'0 0.0
2017-Sep-25 07:00S 22°16' E 166°26'4 7.4
2017-Sep-25 06:30S 22°20' E 166°27'12 1.1
2017-Sep-24 20:01S 22°23' E 166°39'136.7
2017-Sep-24 20:00S 22°23' E 166°39'1327.0
2017-Sep-24 19:31S 22°16' E 166°26'0 0.5
2017-Sep-24 19:00S 22°16' E 166°26'0 0.0
2017-Sep-24 18:30S 22°16' E 166°26'0 0.0
2017-Sep-24 18:00S 22°16' E 166°26'0 0.0
2017-Sep-24 17:30S 22°16' E 166°26'0 0.0
2017-Sep-24 17:00S 22°16' E 166°26'0 0.0
2017-Sep-24 16:30S 22°16' E 166°26'0 0.0
2017-Sep-24 16:00S 22°16' E 166°26'0 0.0
2017-Sep-24 15:30S 22°16' E 166°26'0 0.0
2017-Sep-24 15:00S 22°16' E 166°26'0 0.0
2017-Sep-24 14:30S 22°16' E 166°26'0 0.0
2017-Sep-24 14:00S 22°16' E 166°26'0 0.0
2017-Sep-24 13:30S 22°16' E 166°26'0 0.0
2017-Sep-24 13:00S 22°16' E 166°26'0 0.0
2017-Sep-24 12:30S 22°16' E 166°26'0 0.0
2017-Sep-24 12:00S 22°16' E 166°26'0 0.0
2017-Sep-24 11:30S 22°16' E 166°26'0 0.0
2017-Sep-24 11:00S 22°16' E 166°26'0 0.0
2017-Sep-24 10:30S 22°16' E 166°26'0 0.0
2017-Sep-24 10:00S 22°16' E 166°26'0 0.0
2017-Sep-24 09:31S 22°16' E 166°26'1121.6
2017-Sep-24 08:59S 22°22' E 166°36'2 1.4
2017-Sep-24 07:42S 22°23' E 166°38'736.4
2017-Sep-24 07:31S 22°21' E 166°31'612.4
2017-Sep-24 07:00S 22°16' E 166°26'0 0.0
2017-Sep-24 06:30S 22°16' E 166°26'0 0.0
2017-Sep-24 06:00S 22°16' E 166°26'0 0.0
2017-Sep-24 05:30S 22°16' E 166°26'0 0.0
2017-Sep-24 05:00S 22°16' E 166°26'0 0.0
2017-Sep-24 04:30S 22°16' E 166°26'0 0.0
2017-Sep-24 04:00S 22°16' E 166°26'0 0.0
2017-Sep-24 03:30S 22°16' E 166°26'0 0.0
2017-Sep-24 03:00S 22°16' E 166°26'0 0.0
2017-Sep-24 02:30S 22°16' E 166°26'0 0.0
2017-Sep-24 02:00S 22°16' E 166°26'0 0.0
2017-Sep-24 01:30S 22°16' E 166°26'0 0.0
2017-Sep-24 01:00S 22°16' E 166°26'0 0.0
2017-Sep-24 00:30S 22°16' E 166°26'0 0.0
2017-Sep-24 00:00S 22°16' E 166°26'0 0.0
2017-Sep-23 23:30S 22°16' E 166°26'0 0.0
2017-Sep-23 23:00S 22°16' E 166°26'1121.5
2017-Sep-23 22:31S 22°22' E 166°36'3 1.4
2017-Sep-23 20:01S 22°23' E 166°39'025.5
2017-Sep-23 20:00S 22°23' E 166°39'2 0.0
2017-Sep-21 19:59S 22°21' E 166°38'1224.6
2017-Sep-21 19:30S 22°16' E 166°26'0 0.5
2017-Sep-21 19:00S 22°16' E 166°26'0 0.0
2017-Sep-21 18:30S 22°16' E 166°26'0 0.0
2017-Sep-21 18:01S 22°16' E 166°26'0 0.0
2017-Sep-21 17:31S 22°16' E 166°26'0 0.0
2017-Sep-21 17:00S 22°16' E 166°26'0 0.0
2017-Sep-21 16:30S 22°16' E 166°26'0 0.0
2017-Sep-21 16:01S 22°16' E 166°26'0 0.0
2017-Sep-21 15:31S 22°16' E 166°26'0 0.0
2017-Sep-21 15:01S 22°16' E 166°26'0 0.0
2017-Sep-21 14:31S 22°16' E 166°26'0 0.0
2017-Sep-21 14:00S 22°16' E 166°26'0 0.0
2017-Sep-21 13:31S 22°16' E 166°26'0 0.0
2017-Sep-21 13:01S 22°16' E 166°26'0 0.0
2017-Sep-21 12:31S 22°16' E 166°26'0 0.0
2017-Sep-21 12:00S 22°16' E 166°26'0 0.0
2017-Sep-21 11:30S 22°16' E 166°26'0 0.0
2017-Sep-21 11:01S 22°16' E 166°26'0 0.0
2017-Sep-21 10:30S 22°16' E 166°26'0 0.0
2017-Sep-21 10:01S 22°16' E 166°26'0 0.0
2017-Sep-21 09:30S 22°16' E 166°26'0 0.0
2017-Sep-21 09:01S 22°16' E 166°26'0 0.0
2017-Sep-21 08:30S 22°16' E 166°26'0 0.0
2017-Sep-21 08:01S 22°16' E 166°26'0 0.0
2017-Sep-21 07:30S 22°16' E 166°26'0 0.0
2017-Sep-21 07:01S 22°16' E 166°26'1 2.8
2017-Sep-21 06:31S 22°17' E 166°25'13 1.3
2017-Sep-20 20:00S 22°23' E 166°38'1326.8
2017-Sep-20 19:31S 22°16' E 166°26'0 0.5
2017-Sep-20 19:00S 22°16' E 166°26'0 0.0
2017-Sep-20 18:30S 22°16' E 166°26'0 0.0
2017-Sep-20 18:00S 22°16' E 166°26'0 0.0
2017-Sep-20 17:30S 22°16' E 166°26'0 0.0
2017-Sep-20 17:00S 22°16' E 166°26'0 0.0
2017-Sep-20 16:31S 22°16' E 166°26'0 0.0
2017-Sep-20 16:01S 22°16' E 166°26'0 0.0
2017-Sep-20 15:31S 22°16' E 166°26'0 0.0
2017-Sep-20 15:00S 22°16' E 166°26'0 0.0
2017-Sep-20 14:01S 22°16' E 166°26'0 0.0
2017-Sep-20 13:31S 22°16' E 166°26'0 0.0
2017-Sep-20 13:01S 22°16' E 166°26'0 0.0
2017-Sep-20 12:30S 22°16' E 166°26'0 0.0
2017-Sep-20 12:00S 22°16' E 166°26'0 0.0
2017-Sep-20 11:30S 22°16' E 166°26'0 0.0
2017-Sep-20 11:00S 22°16' E 166°26'0 0.0
2017-Sep-20 10:31S 22°16' E 166°26'0 0.0
2017-Sep-20 10:00S 22°16' E 166°26'0 0.1
2017-Sep-20 09:31S 22°16' E 166°26'1322.9
2017-Sep-20 08:57S 22°23' E 166°38'1 0.8
2017-Sep-20 07:43S 22°23' E 166°37'837.2
2017-Sep-20 07:31S 22°20' E 166°29'5 9.7
2017-Sep-20 07:01S 22°16' E 166°26'1 2.0
2017-Sep-20 06:31S 22°17' E 166°26'14 2.2
2017-Sep-20 00:05S 22°23' E 166°39'332.5
2017-Sep-20 00:00S 22°23' E 166°37'1223.1
2017-Sep-19 23:30S 22°16' E 166°26'0 0.3
2017-Sep-19 23:00S 22°16' E 166°26'1224.4
2017-Sep-19 22:30S 22°23' E 166°38'2 0.7
2017-Sep-19 20:02S 22°23' E 166°39'136.0
2017-Sep-19 20:00S 22°23' E 166°38'1326.2
2017-Sep-19 19:30S 22°16' E 166°26'0 0.5
2017-Sep-19 19:00S 22°16' E 166°26'0 0.0
2017-Sep-19 18:30S 22°16' E 166°26'0 0.0
2017-Sep-19 18:00S 22°16' E 166°26'0 0.0
2017-Sep-19 17:30S 22°16' E 166°26'0 0.0
2017-Sep-19 17:00S 22°16' E 166°26'0 0.0
2017-Sep-19 16:30S 22°16' E 166°26'0 0.0
2017-Sep-19 16:00S 22°16' E 166°26'0 0.0
2017-Sep-19 15:30S 22°16' E 166°26'0 0.0
2017-Sep-19 15:00S 22°16' E 166°26'0 0.0
2017-Sep-19 14:30S 22°16' E 166°26'0 0.0
2017-Sep-19 14:00S 22°16' E 166°26'0 0.0
2017-Sep-19 13:27S 22°16' E 166°26'0 0.0
2017-Sep-19 12:57S 22°16' E 166°26'0 0.0
2017-Sep-19 12:30S 22°16' E 166°26'0 0.0
2017-Sep-19 12:00S 22°16' E 166°26'0 0.0
2017-Sep-19 11:30S 22°16' E 166°26'0 0.0
2017-Sep-19 11:00S 22°16' E 166°26'3 6.4
2017-Sep-19 10:30S 22°19' E 166°26'12 5.0
2017-Sep-19 08:04S 22°23' E 166°39'232.6
2017-Sep-19 08:00S 22°23' E 166°37'1224.0
2017-Sep-19 07:30S 22°16' E 166°26'0 0.7
2017-Sep-19 06:58S 22°16' E 166°26'1 2.2
2017-Sep-19 06:30S 22°17' E 166°26'13 1.3
2017-Sep-18 20:05S 22°23' E 166°38'328.5
2017-Sep-18 20:00S 22°22' E 166°36'1122.2
2017-Sep-18 19:30S 22°16' E 166°26'0 0.7
2017-Sep-18 18:58S 22°16' E 166°26'0 0.0
2017-Sep-18 18:25S 22°16' E 166°26'0 0.0
2017-Sep-18 17:59S 22°16' E 166°26'0 0.0
2017-Sep-18 17:28S 22°16' E 166°26'0 0.0
2017-Sep-18 16:58S 22°16' E 166°26'0 0.0
2017-Sep-18 16:28S 22°16' E 166°26'0 0.0
2017-Sep-18 15:59S 22°16' E 166°26'0 0.0
2017-Sep-18 15:29S 22°16' E 166°26'0 0.0
2017-Sep-18 14:58S 22°16' E 166°26'0 0.0
2017-Sep-18 14:28S 22°16' E 166°26'0 0.0
2017-Sep-18 13:58S 22°16' E 166°26'0 0.0
2017-Sep-18 13:29S 22°16' E 166°26'0 0.0
2017-Sep-18 12:55S 22°16' E 166°26'0 0.0
2017-Sep-18 12:28S 22°16' E 166°26'0 0.0
2017-Sep-18 11:58S 22°16' E 166°26'0 0.0
2017-Sep-18 11:28S 22°16' E 166°26'0 0.0
2017-Sep-18 10:58S 22°16' E 166°26'0 0.0
2017-Sep-18 10:28S 22°16' E 166°26'0 0.0
2017-Sep-18 09:58S 22°16' E 166°26'0 0.0
2017-Sep-18 09:28S 22°16' E 166°26'0 0.0
2017-Sep-18 08:58S 22°16' E 166°26'0 0.0
2017-Sep-18 08:28S 22°16' E 166°26'0 0.0
2017-Sep-18 07:58S 22°16' E 166°26'0 0.0
2017-Sep-18 07:28S 22°16' E 166°26'0 0.0
2017-Sep-18 06:58S 22°16' E 166°26'4 9.4
2017-Sep-18 06:30S 22°20' E 166°28'11 1.0
2017-Sep-17 20:09S 22°23' E 166°40'429.5
2017-Sep-17 20:01S 22°22' E 166°35'1020.6
2017-Sep-17 19:31S 22°16' E 166°26'0 0.5
2017-Sep-17 19:01S 22°16' E 166°26'0 0.0
2017-Sep-17 18:31S 22°16' E 166°26'0 0.0
2017-Sep-17 18:01S 22°16' E 166°26'0 0.0
2017-Sep-17 17:31S 22°16' E 166°26'0 0.0
2017-Sep-17 17:00S 22°16' E 166°26'0 0.0
2017-Sep-17 16:31S 22°16' E 166°26'0 0.0
2017-Sep-17 16:01S 22°16' E 166°26'0 0.0
2017-Sep-17 15:31S 22°16' E 166°26'0 0.0
2017-Sep-17 15:01S 22°16' E 166°26'0 0.0
2017-Sep-17 14:31S 22°16' E 166°26'0 0.0
2017-Sep-17 14:00S 22°16' E 166°26'0 0.0
2017-Sep-17 13:31S 22°16' E 166°26'0 0.0
2017-Sep-17 13:01S 22°16' E 166°26'0 0.0
2017-Sep-17 12:30S 22°16' E 166°26'0 0.0
2017-Sep-17 12:01S 22°16' E 166°26'0 0.0
2017-Sep-17 11:31S 22°16' E 166°26'0 0.0
2017-Sep-17 11:00S 22°16' E 166°26'0 0.0
2017-Sep-17 10:30S 22°16' E 166°26'0 0.0
2017-Sep-17 10:01S 22°16' E 166°26'0 0.0
2017-Sep-17 09:31S 22°16' E 166°26'0 0.0
2017-Sep-17 09:01S 22°16' E 166°26'0 0.0
2017-Sep-17 08:31S 22°16' E 166°26'0 0.0
2017-Sep-17 08:01S 22°16' E 166°26'0 0.0
2017-Sep-17 07:31S 22°16' E 166°26'0 0.0
2017-Sep-17 07:01S 22°16' E 166°26'0 0.0
2017-Sep-17 06:31S 22°16' E 166°26'0 0.0
2017-Sep-17 06:01S 22°16' E 166°26'0 0.0
2017-Sep-17 05:30S 22°16' E 166°26'0 0.0
2017-Sep-17 05:01S 22°16' E 166°26'0 0.0
2017-Sep-17 04:31S 22°16' E 166°26'0 0.0
2017-Sep-17 04:00S 22°16' E 166°26'0 0.0
2017-Sep-17 03:31S 22°16' E 166°26'0 0.0
2017-Sep-17 03:01S 22°16' E 166°26'0 0.0
2017-Sep-17 02:30S 22°16' E 166°26'0 0.0
2017-Sep-17 02:00S 22°16' E 166°26'0 0.0
2017-Sep-17 01:31S 22°16' E 166°26'0 0.0
2017-Sep-17 01:00S 22°16' E 166°26'0 0.0
2017-Sep-17 00:30S 22°16' E 166°26'0 0.0
2017-Sep-17 00:01S 22°16' E 166°26'1 2.2
2017-Sep-16 23:30S 22°17' E 166°26'1 2.2
2017-Sep-16 22:59S 22°16' E 166°26'0 0.0
2017-Sep-16 22:26S 22°16' E 166°26'0 0.0
2017-Sep-16 21:59S 22°16' E 166°26'0 0.0
2017-Sep-16 21:29S 22°16' E 166°26'0 0.0
2017-Sep-16 20:59S 22°16' E 166°26'0 0.0
2017-Sep-16 20:29S 22°16' E 166°26'0 0.0
2017-Sep-16 19:59S 22°16' E 166°26'0 0.0
2017-Sep-16 19:29S 22°16' E 166°26'0 0.0
2017-Sep-16 18:59S 22°16' E 166°26'0 0.0
2017-Sep-16 18:29S 22°16' E 166°26'0 0.0
2017-Sep-16 17:59S 22°16' E 166°26'0 0.0
2017-Sep-16 17:29S 22°16' E 166°26'0 0.0
2017-Sep-16 16:59S 22°16' E 166°26'0 0.0
2017-Sep-16 16:29S 22°16' E 166°26'0 0.0
2017-Sep-16 15:59S 22°16' E 166°26'0 0.0
2017-Sep-16 15:29S 22°16' E 166°26'0 0.0
2017-Sep-16 14:59S 22°16' E 166°26'0 0.0
2017-Sep-16 14:29S 22°16' E 166°26'0 0.0
2017-Sep-16 13:59S 22°16' E 166°26'0 0.0
2017-Sep-16 13:29S 22°16' E 166°26'0 0.0
2017-Sep-16 12:59S 22°16' E 166°26'0 0.0
2017-Sep-16 12:29S 22°16' E 166°26'0 0.0
2017-Sep-16 11:59S 22°16' E 166°26'0 0.0
2017-Sep-16 11:26S 22°16' E 166°26'0 0.0
2017-Sep-16 10:59S 22°16' E 166°26'0 0.0
2017-Sep-16 10:29S 22°16' E 166°26'0 0.0
2017-Sep-16 09:59S 22°16' E 166°26'2 3.7
2017-Sep-16 09:31S 22°18' E 166°25'1630.6
2017-Sep-16 09:00S 22°23' E 166°41'1 1.3
2017-Sep-16 07:53S 22°23' E 166°40'1230.5
2017-Sep-16 07:30S 22°20' E 166°28'4 7.7
2017-Sep-16 07:00S 22°16' E 166°26'0 0.0
2017-Sep-16 06:30S 22°16' E 166°26'0 0.0
2017-Sep-16 06:00S 22°16' E 166°26'0 0.0
2017-Sep-16 05:30S 22°16' E 166°26'0 0.0
2017-Sep-16 05:00S 22°16' E 166°26'0 0.0
2017-Sep-16 04:30S 22°16' E 166°26'0 0.0
2017-Sep-16 04:00S 22°16' E 166°26'0 0.0
2017-Sep-16 03:30S 22°16' E 166°26'0 0.0
2017-Sep-16 03:00S 22°16' E 166°26'0 0.0
2017-Sep-16 02:30S 22°16' E 166°26'0 0.0
2017-Sep-16 02:00S 22°16' E 166°26'0 0.0
2017-Sep-16 01:30S 22°16' E 166°26'0 0.0
2017-Sep-16 01:00S 22°16' E 166°26'0 0.0
2017-Sep-16 00:30S 22°16' E 166°26'0 0.0
2017-Sep-16 00:00S 22°16' E 166°26'0 0.0
2017-Sep-15 23:30S 22°16' E 166°26'3 5.4
2017-Sep-15 23:01S 22°19' E 166°26'13 4.5
2017-Sep-15 20:06S 22°23' E 166°39'330.0
2017-Sep-15 20:00S 22°23' E 166°36'1122.6
2017-Sep-15 19:30S 22°16' E 166°26'0 0.6
2017-Sep-15 19:00S 22°16' E 166°26'0 0.0
2017-Sep-15 18:29S 22°16' E 166°26'0 0.0
2017-Sep-15 17:59S 22°16' E 166°26'0 0.0
2017-Sep-15 17:26S 22°16' E 166°26'0 0.0
2017-Sep-15 16:59S 22°16' E 166°26'0 0.0
2017-Sep-15 16:29S 22°16' E 166°26'0 0.0
2017-Sep-15 15:59S 22°16' E 166°26'0 0.0
2017-Sep-15 15:29S 22°16' E 166°26'0 0.0
2017-Sep-15 14:59S 22°16' E 166°26'0 0.0
2017-Sep-15 14:29S 22°16' E 166°26'0 0.0
2017-Sep-15 13:59S 22°16' E 166°26'  

Dump ship's entire track history